createdAt,value
2017-09-02T00:01:32.205Z,90.60
2017-09-02T00:03:59.826Z,90.70
2017-09-02T00:06:27.470Z,90.60
2017-09-02T00:08:55.082Z,90.60
2017-09-02T00:11:22.744Z,90.50
2017-09-02T00:13:50.331Z,90.50
2017-09-02T00:16:17.899Z,90.60
2017-09-02T00:18:45.492Z,90.60
2017-09-02T00:21:13.140Z,90.20
2017-09-02T00:23:40.679Z,90.40
2017-09-02T00:26:08.261Z,90.70
2017-09-02T00:28:35.856Z,90.60
2017-09-02T00:31:03.490Z,90.50
2017-09-02T00:33:31.089Z,90.40
2017-09-02T00:35:58.736Z,90.30
2017-09-02T00:38:26.408Z,90.40
2017-09-02T00:40:54.052Z,90.40
2017-09-02T00:43:21.650Z,90.40
2017-09-02T00:45:49.303Z,90.60
2017-09-02T00:48:16.904Z,90.40
2017-09-02T00:50:44.547Z,90.50
2017-09-02T00:53:12.107Z,90.70
2017-09-02T00:55:39.734Z,90.80
2017-09-02T00:58:07.418Z,90.90
2017-09-02T01:00:35.122Z,90.90
2017-09-02T01:03:02.803Z,91.00
2017-09-02T01:05:30.689Z,90.90
2017-09-02T01:07:58.740Z,90.70
2017-09-02T01:10:27.107Z,90.50
2017-09-02T01:12:54.916Z,90.70
2017-09-02T01:15:22.612Z,90.80
2017-09-02T01:17:50.261Z,90.90
2017-09-02T01:20:17.857Z,91.10
2017-09-02T01:22:45.499Z,91.20
2017-09-02T01:25:13.109Z,91.20
2017-09-02T01:27:40.747Z,91.00
2017-09-02T01:30:08.605Z,90.90
2017-09-02T01:32:36.632Z,90.80
2017-09-02T01:35:05.514Z,90.80
2017-09-02T01:37:33.552Z,90.80
2017-09-02T01:40:01.653Z,91.20
2017-09-02T01:42:31.583Z,91.00
2017-09-02T01:45:00.610Z,90.80
2017-09-02T01:47:29.760Z,90.90
2017-09-02T01:49:59.062Z,91.00
2017-09-02T01:52:31.392Z,91.10
2017-09-02T01:55:03.205Z,91.00
2017-09-02T01:57:32.137Z,90.70
2017-09-02T02:00:01.230Z,91.10
2017-09-02T02:02:34.432Z,91.80
2017-09-02T02:05:02.890Z,91.20
2017-09-02T02:07:31.743Z,91.50
2017-09-02T02:10:02.760Z,91.80
2017-09-02T02:12:32.624Z,91.60
2017-09-02T02:15:02.895Z,91.40
2017-09-02T02:17:32.664Z,91.50
2017-09-02T02:20:02.030Z,91.70
2017-09-02T02:22:32.058Z,91.60
2017-09-02T02:25:05.706Z,91.50
2017-09-02T02:27:34.461Z,91.40
2017-09-02T02:30:05.455Z,91.20
2017-09-02T02:32:36.263Z,91.30
2017-09-02T02:35:08.369Z,91.40
2017-09-02T02:37:40.252Z,91.40
2017-09-02T02:40:09.825Z,91.40
2017-09-02T02:42:38.042Z,91.20
2017-09-02T02:45:06.313Z,91.00
2017-09-02T02:47:34.956Z,91.20
2017-09-02T02:50:04.356Z,91.20
2017-09-02T02:52:35.630Z,91.30
2017-09-02T02:55:03.951Z,91.50
2017-09-02T02:57:33.066Z,91.80
2017-09-02T03:00:02.510Z,91.70
2017-09-02T03:02:33.031Z,91.80
2017-09-02T03:05:05.664Z,91.70
2017-09-02T03:07:35.020Z,91.40
2017-09-02T03:10:09.997Z,91.50
2017-09-02T03:12:38.751Z,91.40
2017-09-02T03:15:13.370Z,91.70
2017-09-02T03:17:42.048Z,91.40
2017-09-02T03:20:10.375Z,91.40
2017-09-02T03:22:40.276Z,91.70
2017-09-02T03:25:14.862Z,91.70
2017-09-02T03:27:42.949Z,91.70
2017-09-02T03:30:11.367Z,91.80
2017-09-02T03:32:39.700Z,91.70
2017-09-02T03:35:10.120Z,91.60
2017-09-02T03:37:38.930Z,91.60
2017-09-02T03:40:08.234Z,91.60
2017-09-02T03:42:36.691Z,91.50
2017-09-02T03:45:06.862Z,91.20
2017-09-02T03:47:41.235Z,91.40
2017-09-02T03:50:09.953Z,91.50
2017-09-02T03:52:38.553Z,91.60
2017-09-02T03:55:07.576Z,91.60
2017-09-02T03:57:36.355Z,91.70
2017-09-02T04:00:05.552Z,91.80
2017-09-02T04:02:47.332Z,92.00
2017-09-02T04:05:15.303Z,92.10
2017-09-02T04:07:43.033Z,91.90
2017-09-02T04:10:11.905Z,91.60
2017-09-02T04:12:41.010Z,91.90
2017-09-02T04:15:15.356Z,91.80
2017-09-02T04:17:42.993Z,91.90
2017-09-02T04:20:11.123Z,92.00
2017-09-02T04:22:40.807Z,91.90
2017-09-02T04:25:16.227Z,91.70
2017-09-02T04:27:43.835Z,91.40
2017-09-02T04:30:11.826Z,91.40
2017-09-02T04:32:40.364Z,91.40
2017-09-02T04:35:09.041Z,91.40
2017-09-02T04:37:38.789Z,91.60
2017-09-02T04:40:07.354Z,91.80
2017-09-02T04:42:39.936Z,91.80
2017-09-02T04:45:08.404Z,92.00
2017-09-02T04:47:36.662Z,92.00
2017-09-02T04:50:04.874Z,91.90
2017-09-02T04:52:32.937Z,92.00
2017-09-02T04:55:02.489Z,92.00
2017-09-02T04:57:31.718Z,91.90
2017-09-02T05:00:06.356Z,91.20
2017-09-02T05:02:34.848Z,91.10
2017-09-02T05:05:02.938Z,91.00
2017-09-02T05:07:32.796Z,90.90
2017-09-02T05:10:02.132Z,91.20
2017-09-02T05:12:31.325Z,91.50
2017-09-02T05:14:59.527Z,91.60
2017-09-02T05:17:28.290Z,91.80
2017-09-02T05:19:56.577Z,92.00
2017-09-02T05:22:24.250Z,91.80
2017-09-02T05:24:51.914Z,91.60
2017-09-02T05:27:19.522Z,91.30
2017-09-02T05:29:47.192Z,91.40
2017-09-02T05:32:14.759Z,91.50
2017-09-02T05:34:42.419Z,91.20
2017-09-02T05:37:09.992Z,91.30
2017-09-02T05:39:37.646Z,91.30
2017-09-02T05:42:05.309Z,91.20
2017-09-02T05:44:32.966Z,91.20
2017-09-02T05:47:00.647Z,91.30
2017-09-02T05:49:28.450Z,91.20
2017-09-02T05:51:56.452Z,91.00
2017-09-02T05:54:24.083Z,90.70
2017-09-02T05:56:51.712Z,90.40
2017-09-02T05:59:19.314Z,90.30
2017-09-02T06:01:46.939Z,90.20
2017-09-02T06:04:14.541Z,90.00
2017-09-02T06:06:42.180Z,89.70
2017-09-02T06:09:09.780Z,89.10
2017-09-02T06:11:37.442Z,89.00
2017-09-02T06:14:05.081Z,88.80
2017-09-02T06:16:32.856Z,88.60
2017-09-02T06:19:00.474Z,88.50
2017-09-02T06:21:28.168Z,88.60
2017-09-02T06:23:55.808Z,89.00
2017-09-02T06:26:23.483Z,89.00
2017-09-02T06:28:51.042Z,89.30
2017-09-02T06:31:18.694Z,89.20
2017-09-02T06:33:46.278Z,89.00
2017-09-02T06:36:13.904Z,89.30
2017-09-02T06:38:41.493Z,88.70
2017-09-02T06:44:07.103Z,89.00
2017-09-02T06:46:34.802Z,88.90
2017-09-02T06:49:02.425Z,87.70
2017-09-02T06:51:30.169Z,86.80
2017-09-02T06:53:57.864Z,85.00
2017-09-02T06:56:25.627Z,84.70
2017-09-02T06:58:53.245Z,84.40
2017-09-02T07:01:21.633Z,84.70
2017-09-02T07:03:49.240Z,84.70
2017-09-02T07:06:16.844Z,83.70
2017-09-02T07:08:44.490Z,82.50
2017-09-02T07:11:12.095Z,82.20
2017-09-02T07:13:39.738Z,82.30
2017-09-02T07:16:07.325Z,82.00
2017-09-02T07:18:34.979Z,81.60
2017-09-02T07:21:02.619Z,80.80
2017-09-02T07:23:30.301Z,80.70
2017-09-02T07:25:57.881Z,79.90
2017-09-02T07:28:25.596Z,78.90
2017-09-02T07:30:53.225Z,79.40
2017-09-02T07:33:20.865Z,78.60
2017-09-02T07:35:48.472Z,78.70
2017-09-02T07:38:16.077Z,80.40
2017-09-02T07:40:43.642Z,80.60
2017-09-02T07:43:11.303Z,79.80
2017-09-02T07:45:38.925Z,80.00
2017-09-02T07:48:06.570Z,79.80
2017-09-02T07:50:34.147Z,77.80
2017-09-02T07:53:01.798Z,79.00
2017-09-02T07:55:29.519Z,79.80
2017-09-02T07:57:57.224Z,80.20
2017-09-02T08:00:24.823Z,81.10
2017-09-02T08:02:52.869Z,81.90
2017-09-02T08:05:20.507Z,81.90
2017-09-02T08:07:48.046Z,82.20
2017-09-02T08:10:15.697Z,82.50
2017-09-02T08:12:43.234Z,82.40
2017-09-02T08:15:10.864Z,83.50
2017-09-02T08:17:38.443Z,85.90
2017-09-02T08:20:06.071Z,88.60
2017-09-02T08:22:33.666Z,89.30
2017-09-02T08:25:01.405Z,90.60
2017-09-02T08:27:29.031Z,91.70
2017-09-02T08:29:57.915Z,91.90
2017-09-02T08:32:26.289Z,92.10
2017-09-02T08:34:54.760Z,94.10
2017-09-02T08:37:22.380Z,94.10
2017-09-02T08:39:49.980Z,95.00
2017-09-02T08:42:17.564Z,95.50
2017-09-02T08:44:45.148Z,95.60
2017-09-02T08:47:13.304Z,96.10
2017-09-02T08:49:40.891Z,96.10
2017-09-02T08:52:08.468Z,95.80
2017-09-02T08:54:36.079Z,95.90
2017-09-02T08:57:03.725Z,96.00
2017-09-02T08:59:31.370Z,96.10
2017-09-02T09:01:59.100Z,96.20
2017-09-02T09:04:26.737Z,96.30
2017-09-02T09:06:54.359Z,96.00
2017-09-02T09:09:21.952Z,95.80
2017-09-02T09:11:49.513Z,95.60
2017-09-02T09:14:17.170Z,96.00
2017-09-02T09:16:44.847Z,96.30
2017-09-02T09:19:12.438Z,95.20
2017-09-02T09:21:40.056Z,95.40
2017-09-02T09:24:07.810Z,94.80
2017-09-02T09:26:35.529Z,94.30
2017-09-02T09:29:03.108Z,94.60
2017-09-02T09:31:31.577Z,95.00
2017-09-02T09:33:59.387Z,95.00
2017-09-02T09:36:27.304Z,95.10
2017-09-02T09:38:54.958Z,95.50
2017-09-02T09:41:22.545Z,95.10
2017-09-02T09:43:50.181Z,94.30
2017-09-02T09:46:17.777Z,93.90
2017-09-02T09:48:45.461Z,94.90
2017-09-02T09:51:13.043Z,95.70
2017-09-02T09:53:40.696Z,95.70
2017-09-02T09:56:08.272Z,95.80
2017-09-02T09:58:35.977Z,96.10
2017-09-02T10:01:03.618Z,95.90
2017-09-02T10:03:31.210Z,94.80
2017-09-02T10:05:59.011Z,94.20
2017-09-02T10:08:26.649Z,94.40
2017-09-02T10:10:54.261Z,94.70
2017-09-02T10:13:21.900Z,94.90
2017-09-02T10:15:49.519Z,95.10
2017-09-02T10:18:17.155Z,93.80
2017-09-02T10:20:44.738Z,93.70
2017-09-02T10:23:12.392Z,93.50
2017-09-02T10:25:40.001Z,92.70
2017-09-02T10:28:07.654Z,93.20
2017-09-02T10:30:35.188Z,92.80
2017-09-02T10:33:02.842Z,91.90
2017-09-02T10:35:30.823Z,92.20
2017-09-02T10:37:58.521Z,93.10
2017-09-02T10:40:26.177Z,93.60
2017-09-02T10:42:53.835Z,92.60
2017-09-02T10:45:21.453Z,92.30
2017-09-02T10:47:49.095Z,92.00
2017-09-02T10:50:16.690Z,92.30
2017-09-02T10:52:45.098Z,92.10
2017-09-02T10:55:12.631Z,92.10
2017-09-02T10:57:40.574Z,91.90
2017-09-02T11:00:08.947Z,91.40
2017-09-02T11:02:36.763Z,91.40
2017-09-02T11:05:04.365Z,90.60
2017-09-02T11:07:32.003Z,88.50
2017-09-02T11:09:59.601Z,90.40
2017-09-02T11:12:27.308Z,88.70
2017-09-02T11:14:54.916Z,90.10
2017-09-02T11:17:22.548Z,89.70
2017-09-02T11:19:50.115Z,86.90
2017-09-02T11:22:17.746Z,85.30
2017-09-02T11:24:45.337Z,84.70
2017-09-02T11:27:13.068Z,86.30
2017-09-02T11:29:40.947Z,87.40
2017-09-02T11:32:08.505Z,84.30
2017-09-02T11:34:36.116Z,87.70
2017-09-02T11:37:03.739Z,88.80
2017-09-02T11:39:31.342Z,90.40
2017-09-02T11:41:59.025Z,90.10
2017-09-02T11:44:26.663Z,90.20
2017-09-02T11:46:55.104Z,84.00
2017-09-02T11:49:23.147Z,84.10
2017-09-02T11:51:50.794Z,86.70
2017-09-02T11:54:18.380Z,84.20
2017-09-02T11:56:45.986Z,84.90
2017-09-02T11:59:13.571Z,85.80
2017-09-02T12:01:41.288Z,81.40
2017-09-02T12:04:08.921Z,76.20
2017-09-02T12:06:36.524Z,79.80
2017-09-02T12:09:05.382Z,80.40
2017-09-02T12:11:33.037Z,80.40
2017-09-02T12:14:00.607Z,83.90
2017-09-02T12:16:28.249Z,81.20
2017-09-02T12:18:55.849Z,81.20
2017-09-02T12:21:23.458Z,79.60
2017-09-02T12:23:51.129Z,77.90
2017-09-02T12:26:18.750Z,77.20
2017-09-02T12:28:46.413Z,75.10
2017-09-02T12:31:14.002Z,75.70
2017-09-02T12:33:41.668Z,72.40
2017-09-02T12:36:09.289Z,77.00
2017-09-02T12:38:36.937Z,79.00
2017-09-02T12:41:04.551Z,78.30
2017-09-02T12:43:32.222Z,76.00
2017-09-02T12:45:59.834Z,76.80
2017-09-02T12:48:27.715Z,75.90
2017-09-02T12:50:55.299Z,74.80
2017-09-02T12:53:22.973Z,74.30
2017-09-02T12:55:50.559Z,75.80
2017-09-02T12:58:18.201Z,71.10
2017-09-02T13:00:45.804Z,70.70
2017-09-02T13:03:13.794Z,70.20
2017-09-02T13:05:41.469Z,73.00
2017-09-02T13:08:09.131Z,69.30
2017-09-02T13:10:36.731Z,71.10
2017-09-02T13:13:04.304Z,73.40
2017-09-02T13:15:31.978Z,71.30
2017-09-02T13:17:59.593Z,70.80
2017-09-02T13:20:27.312Z,69.60
2017-09-02T13:22:54.903Z,72.40
2017-09-02T13:25:22.550Z,74.60
2017-09-02T13:27:50.142Z,71.50
2017-09-02T13:30:17.764Z,75.20
2017-09-02T13:32:45.343Z,73.20
2017-09-02T13:35:13.012Z,70.50
2017-09-02T13:37:40.617Z,69.00
2017-09-02T13:40:08.253Z,67.50
2017-09-02T13:42:35.813Z,67.80
2017-09-02T13:45:03.462Z,67.70
2017-09-02T13:47:31.081Z,70.20
2017-09-02T13:49:58.741Z,70.00
2017-09-02T13:52:26.368Z,68.50
2017-09-02T13:54:53.994Z,67.10
2017-09-02T13:57:21.595Z,66.80
2017-09-02T13:59:49.224Z,66.60
2017-09-02T14:02:16.758Z,63.80
2017-09-02T14:04:44.287Z,67.80
2017-09-02T14:07:11.877Z,67.50
2017-09-02T14:09:39.487Z,71.10
2017-09-02T14:12:07.914Z,72.70
2017-09-02T14:14:35.820Z,71.20
2017-09-02T14:17:03.429Z,72.60
2017-09-02T14:19:31.013Z,72.60
2017-09-02T14:21:58.616Z,73.90
2017-09-02T14:24:26.204Z,70.70
2017-09-02T14:26:53.885Z,73.40
2017-09-02T14:29:21.469Z,74.50
2017-09-02T14:31:49.115Z,70.70
2017-09-02T14:34:16.695Z,66.00
2017-09-02T14:36:45.422Z,65.70
2017-09-02T14:39:13.056Z,68.70
2017-09-02T14:41:40.633Z,65.70
2017-09-02T14:44:08.242Z,66.80
2017-09-02T14:46:35.874Z,66.00
2017-09-02T14:49:03.441Z,63.10
2017-09-02T14:51:31.053Z,65.50
2017-09-02T14:53:58.774Z,61.60
2017-09-02T14:56:26.359Z,67.30
2017-09-02T14:58:53.932Z,68.20
2017-09-02T15:01:21.556Z,70.40
2017-09-02T15:03:49.146Z,74.20
2017-09-02T15:06:16.792Z,73.40
2017-09-02T15:08:44.365Z,71.30
2017-09-02T15:11:11.985Z,71.10
2017-09-02T15:13:39.677Z,69.10
2017-09-02T15:16:07.246Z,68.80
2017-09-02T15:18:34.827Z,69.50
2017-09-02T15:21:02.410Z,67.50
2017-09-02T15:23:30.039Z,65.60
2017-09-02T15:25:57.696Z,65.00
2017-09-02T15:28:25.290Z,65.10
2017-09-02T15:30:52.916Z,65.20
2017-09-02T15:33:20.451Z,67.60
2017-09-02T15:35:48.086Z,67.50
2017-09-02T15:38:15.674Z,67.60
2017-09-02T15:40:43.274Z,67.80
2017-09-02T15:43:10.875Z,67.30
2017-09-02T15:45:38.449Z,70.50
2017-09-02T15:48:05.980Z,72.30
2017-09-02T15:50:33.604Z,71.50
2017-09-02T15:53:01.249Z,70.50
2017-09-02T15:55:28.893Z,71.80
2017-09-02T15:57:56.558Z,73.10
2017-09-02T16:00:24.161Z,72.70
2017-09-02T16:02:51.815Z,73.70
2017-09-02T16:05:19.400Z,74.90
2017-09-02T16:07:47.038Z,76.10
2017-09-02T16:10:14.587Z,76.50
2017-09-02T16:12:42.222Z,77.10
2017-09-02T16:15:09.833Z,76.10
2017-09-02T16:17:37.461Z,76.00
2017-09-02T16:20:05.029Z,77.20
2017-09-02T16:22:32.631Z,77.40
2017-09-02T16:25:00.247Z,76.90
2017-09-02T16:27:27.918Z,76.90
2017-09-02T16:29:55.495Z,77.80
2017-09-02T16:32:23.154Z,78.80
2017-09-02T16:34:50.746Z,79.70
2017-09-02T16:37:18.385Z,80.60
2017-09-02T16:39:45.987Z,81.10
2017-09-02T16:42:13.600Z,81.90
2017-09-02T16:44:41.202Z,83.40
2017-09-02T16:47:08.807Z,84.00
2017-09-02T16:49:36.419Z,84.70
2017-09-02T16:52:04.107Z,84.70
2017-09-02T16:54:31.731Z,85.00
2017-09-02T16:56:59.376Z,85.20
2017-09-02T16:59:27.043Z,85.60
2017-09-02T17:01:54.684Z,86.00
2017-09-02T17:04:22.275Z,86.50
2017-09-02T17:06:49.974Z,86.50
2017-09-02T17:09:17.536Z,87.00
2017-09-02T17:11:45.150Z,87.10
2017-09-02T17:14:12.821Z,87.00
2017-09-02T17:16:40.443Z,86.80
2017-09-02T17:19:08.105Z,87.10
2017-09-02T17:21:35.727Z,86.80
2017-09-02T17:24:03.421Z,86.90
2017-09-02T17:26:31.639Z,86.30
2017-09-02T17:28:59.368Z,86.70
2017-09-02T17:31:27.071Z,87.50
2017-09-02T17:33:54.697Z,87.30
2017-09-02T17:36:22.297Z,87.20
2017-09-02T17:38:49.999Z,87.50
2017-09-02T17:41:17.757Z,88.10
2017-09-02T17:43:45.304Z,88.60
2017-09-02T17:46:12.895Z,89.50
2017-09-02T17:48:40.463Z,90.00
2017-09-02T17:51:08.059Z,90.20
2017-09-02T17:53:35.768Z,90.40
2017-09-02T17:56:03.409Z,90.30
2017-09-02T17:58:31.008Z,90.30
2017-09-02T18:00:58.622Z,90.30
2017-09-02T18:03:26.369Z,90.50
2017-09-02T18:05:53.967Z,90.40
2017-09-02T18:08:21.530Z,90.30
2017-09-02T18:10:49.091Z,90.40
2017-09-02T18:13:16.678Z,90.50
2017-09-02T18:15:44.326Z,90.50
2017-09-02T18:18:11.936Z,90.40
2017-09-02T18:20:39.599Z,90.70
2017-09-02T18:23:07.884Z,90.80
2017-09-02T18:25:35.522Z,90.90
2017-09-02T18:28:03.121Z,90.50
2017-09-02T18:30:30.929Z,90.60
2017-09-02T18:32:58.527Z,90.60
2017-09-02T18:35:26.177Z,90.60
2017-09-02T18:37:53.828Z,90.70
2017-09-02T18:40:21.694Z,90.50
2017-09-02T18:42:49.348Z,90.80
2017-09-02T18:45:16.948Z,90.70
2017-09-02T18:47:44.611Z,90.60
2017-09-02T18:50:12.234Z,90.70
2017-09-02T18:52:39.901Z,90.40
2017-09-02T18:55:07.500Z,90.60
2017-09-02T18:57:35.275Z,90.40
2017-09-02T19:00:02.940Z,90.70
2017-09-02T19:02:30.544Z,90.80
2017-09-02T19:04:58.283Z,90.90
2017-09-02T19:07:25.908Z,91.00
2017-09-02T19:09:53.545Z,91.20
2017-09-02T19:12:21.142Z,91.10
2017-09-02T19:14:48.783Z,91.20
2017-09-02T19:17:16.369Z,91.10
2017-09-02T19:19:44.025Z,91.10
2017-09-02T19:22:11.652Z,91.20
2017-09-02T19:24:39.360Z,91.30
2017-09-02T19:27:06.978Z,91.40
2017-09-02T19:29:34.536Z,91.50
2017-09-02T19:32:02.142Z,91.30
2017-09-02T19:34:29.775Z,91.10
2017-09-02T19:36:57.378Z,91.00
2017-09-02T19:39:24.959Z,91.20
2017-09-02T19:41:52.607Z,91.20
2017-09-02T19:44:20.203Z,91.50
2017-09-02T19:46:47.840Z,91.40
2017-09-02T19:49:15.429Z,91.40
2017-09-02T19:51:43.027Z,91.40
2017-09-02T19:54:10.608Z,91.40
2017-09-02T19:56:38.411Z,91.20
2017-09-02T19:59:05.982Z,91.30
2017-09-02T20:01:33.554Z,91.20
2017-09-02T20:04:01.205Z,91.20
2017-09-02T20:06:28.838Z,91.40
2017-09-02T20:08:56.493Z,91.10
2017-09-02T20:11:24.824Z,91.70
2017-09-02T20:13:52.445Z,91.60
2017-09-02T20:16:20.022Z,91.50
2017-09-02T20:18:47.723Z,91.30
2017-09-02T20:21:15.323Z,91.40
2017-09-02T20:23:43.964Z,91.60
2017-09-02T20:26:11.560Z,91.60
2017-09-02T20:28:39.950Z,91.90
2017-09-02T20:31:07.548Z,91.90
2017-09-02T20:33:35.167Z,91.80
2017-09-02T20:36:02.822Z,91.60
2017-09-02T20:38:30.410Z,90.10
2017-09-02T20:40:58.053Z,90.30
2017-09-02T20:43:25.657Z,91.00
2017-09-02T20:45:53.290Z,91.00
2017-09-02T20:48:20.892Z,91.30
2017-09-02T20:50:48.541Z,91.30
2017-09-02T20:53:16.133Z,91.50
2017-09-02T20:55:43.740Z,91.50
2017-09-02T20:58:11.328Z,91.60
2017-09-02T21:00:38.927Z,91.50
2017-09-02T21:03:06.543Z,91.30
2017-09-02T21:05:34.136Z,91.50
2017-09-02T21:08:01.785Z,91.50
2017-09-02T21:10:29.379Z,91.60
2017-09-02T21:12:56.968Z,91.40
2017-09-02T21:15:25.316Z,91.50
2017-09-02T21:17:52.962Z,91.50
2017-09-02T21:20:20.632Z,91.60
2017-09-02T21:22:48.421Z,91.80
2017-09-02T21:25:16.105Z,91.90
2017-09-02T21:27:43.667Z,92.00
2017-09-02T21:30:11.257Z,92.20
2017-09-02T21:32:38.855Z,92.40
2017-09-02T21:35:06.404Z,92.00
2017-09-02T21:37:34.223Z,92.00
2017-09-02T21:40:01.846Z,92.00
2017-09-02T21:42:29.436Z,91.70
2017-09-02T21:44:57.200Z,91.70
2017-09-02T21:47:24.790Z,91.80
2017-09-02T21:49:52.372Z,91.60
2017-09-02T21:52:19.953Z,91.50
2017-09-02T21:54:47.621Z,91.60
2017-09-02T21:57:15.214Z,91.90
2017-09-02T21:59:42.855Z,91.60
2017-09-02T22:02:10.466Z,91.50
2017-09-02T22:04:38.081Z,91.60
2017-09-02T22:07:05.657Z,91.70
2017-09-02T22:09:33.292Z,92.00
2017-09-02T22:12:01.020Z,91.90
2017-09-02T22:14:28.797Z,92.10
2017-09-02T22:16:56.444Z,92.10
2017-09-02T22:19:24.053Z,92.00
2017-09-02T22:21:51.592Z,91.80
2017-09-02T22:24:19.997Z,91.80
2017-09-02T22:26:47.599Z,91.80
2017-09-02T22:29:15.238Z,91.80
2017-09-02T22:31:42.764Z,91.70
2017-09-02T22:34:10.389Z,91.60
2017-09-02T22:36:37.961Z,91.30
2017-09-02T22:39:05.618Z,91.50
2017-09-02T22:41:33.272Z,91.40
2017-09-02T22:44:00.945Z,91.50
2017-09-02T22:46:28.615Z,91.30
2017-09-02T22:48:56.266Z,91.30
2017-09-02T22:51:23.876Z,91.20
2017-09-02T22:53:51.455Z,91.20
2017-09-02T22:56:19.016Z,91.30
2017-09-02T22:58:46.656Z,91.40
2017-09-02T23:01:14.257Z,91.50
2017-09-02T23:03:41.855Z,91.60
2017-09-02T23:06:09.514Z,91.50
2017-09-02T23:08:37.104Z,91.30
2017-09-02T23:11:04.784Z,91.30
2017-09-02T23:13:32.370Z,91.60
2017-09-02T23:16:00.008Z,91.50
2017-09-02T23:18:27.685Z,91.60
2017-09-02T23:20:55.365Z,91.60
2017-09-02T23:23:22.988Z,91.60
2017-09-02T23:25:50.627Z,91.60
2017-09-02T23:28:18.237Z,91.90
2017-09-02T23:30:45.858Z,92.20
2017-09-02T23:33:13.518Z,92.30
2017-09-02T23:35:41.190Z,92.50
2017-09-02T23:38:09.216Z,92.50
2017-09-02T23:40:36.878Z,92.30
2017-09-02T23:43:04.498Z,92.20
2017-09-02T23:45:32.142Z,92.20
2017-09-02T23:47:59.810Z,92.20
2017-09-02T23:50:27.460Z,92.00
2017-09-02T23:52:55.171Z,92.20
2017-09-02T23:55:22.778Z,92.20
2017-09-02T23:57:50.457Z,92.00
